sensor_id;sensor_type;location;lat;lon;timestamp;temperature;humidity
41922;DHT22;27609;51.002;5.354;2023-03-01T00:00:54;0.90;99.90
41922;DHT22;27609;51.002;5.354;2023-03-01T00:03:20;0.90;99.90
41922;DHT22;27609;51.002;5.354;2023-03-01T00:05:46;1.70;99.90
41922;DHT22;27609;51.002;5.354;2023-03-01T00:08:12;0.80;99.90
41922;DHT22;27609;51.002;5.354;2023-03-01T00:10:38;0.80;99.90
41922;DHT22;27609;51.002;5.354;2023-03-01T00:13:03;1.40;99.90
41922;DHT22;27609;51.002;5.354;2023-03-01T00:15:31;1.40;99.90
41922;DHT22;27609;51.002;5.354;2023-03-01T00:17:57;0.70;99.90
41922;DHT22;27609;51.002;5.354;2023-03-01T00:20:23;0.60;99.90
41922;DHT22;27609;51.002;5.354;2023-03-01T00:22:48;0.60;99.90
41922;DHT22;27609;51.002;5.354;2023-03-01T00:25:14;1.20;99.90
41922;DHT22;27609;51.002;5.354;2023-03-01T00:27:40;0.60;99.90
41922;DHT22;27609;51.002;5.354;2023-03-01T00:30:06;0.60;99.90
41922;DHT22;27609;51.002;5.354;2023-03-01T00:32:32;0.50;99.90
41922;DHT22;27609;51.002;5.354;2023-03-01T00:34:57;1.00;99.90
41922;DHT22;27609;51.002;5.354;2023-03-01T00:37:23;0.50;99.90
41922;DHT22;27609;51.002;5.354;2023-03-01T00:39:49;0.40;99.90
41922;DHT22;27609;51.002;5.354;2023-03-01T00:42:15;1.50;99.90
41922;DHT22;27609;51.002;5.354;2023-03-01T00:44:41;0.30;99.90
41922;DHT22;27609;51.002;5.354;2023-03-01T00:47:07;1.00;99.90
41922;DHT22;27609;51.002;5.354;2023-03-01T00:49:33;0.80;99.90
41922;DHT22;27609;51.002;5.354;2023-03-01T00:51:58;0.30;99.90
41922;DHT22;27609;51.002;5.354;2023-03-01T00:54:24;0.40;99.90
41922;DHT22;27609;51.002;5.354;2023-03-01T00:56:50;0.20;99.90
41922;DHT22;27609;51.002;5.354;2023-03-01T00:59:15;0.20;99.90
41922;DHT22;27609;51.002;5.354;2023-03-01T01:01:41;0.30;99.90
41922;DHT22;27609;51.002;5.354;2023-03-01T01:04:10;0.20;99.90
41922;DHT22;27609;51.002;5.354;2023-03-01T01:06:44;0.20;99.90
41922;DHT22;27609;51.002;5.354;2023-03-01T01:09:12;0.70;99.90
41922;DHT22;27609;51.002;5.354;2023-03-01T01:11:43;0.40;99.90
41922;DHT22;27609;51.002;5.354;2023-03-01T01:14:09;0.40;99.90
41922;DHT22;27609;51.002;5.354;2023-03-01T01:16:35;0.60;99.90
41922;DHT22;27609;51.002;5.354;2023-03-01T01:19:00;0.00;99.90
41922;DHT22;27609;51.002;5.354;2023-03-01T01:21:26;0.60;99.90
41922;DHT22;27609;51.002;5.354;2023-03-01T01:23:52;0.70;99.90
41922;DHT22;27609;51.002;5.354;2023-03-01T01:26:27;0.40;99.90
41922;DHT22;27609;51.002;5.354;2023-03-01T01:28:54;0.10;99.90
41922;DHT22;27609;51.002;5.354;2023-03-01T01:31:20;0.50;99.90
41922;DHT22;27609;51.002;5.354;2023-03-01T01:33:49;0.00;99.90
41922;DHT22;27609;51.002;5.354;2023-03-01T01:36:15;0.00;99.90
41922;DHT22;27609;51.002;5.354;2023-03-01T01:38:41;0.60;99.90
41922;DHT22;27609;51.002;5.354;2023-03-01T01:41:08;0.00;99.90
41922;DHT22;27609;51.002;5.354;2023-03-01T01:43:41;0.10;99.90
41922;DHT22;27609;51.002;5.354;2023-03-01T01:46:28;-0.10;99.90
41922;DHT22;27609;51.002;5.354;2023-03-01T01:49:00;-0.10;99.90
41922;DHT22;27609;51.002;5.354;2023-03-01T01:51:35;-0.10;99.90
41922;DHT22;27609;51.002;5.354;2023-03-01T01:54:09;0.10;99.90
41922;DHT22;27609;51.002;5.354;2023-03-01T01:56:37;-0.20;99.90
41922;DHT22;27609;51.002;5.354;2023-03-01T01:59:04;-0.20;99.90
41922;DHT22;27609;51.002;5.354;2023-03-01T02:01:30;0.00;99.90
41922;DHT22;27609;51.002;5.354;2023-03-01T02:03:55;-0.20;99.90
41922;DHT22;27609;51.002;5.354;2023-03-01T02:06:22;-0.30;99.90
41922;DHT22;27609;51.002;5.354;2023-03-01T02:09:05;0.10;99.90
41922;DHT22;27609;51.002;5.354;2023-03-01T02:11:33;-0.30;99.90
41922;DHT22;27609;51.002;5.354;2023-03-01T02:13:59;-0.30;99.90
41922;DHT22;27609;51.002;5.354;2023-03-01T02:16:25;0.60;99.90
41922;DHT22;27609;51.002;5.354;2023-03-01T02:18:51;-0.30;99.90
41922;DHT22;27609;51.002;5.354;2023-03-01T02:27:13;-0.50;99.90
41922;DHT22;27609;51.002;5.354;2023-03-01T02:29:39;0.00;99.90
41922;DHT22;27609;51.002;5.354;2023-03-01T02:32:05;-0.40;99.90
41922;DHT22;27609;51.002;5.354;2023-03-01T02:34:31;0.50;99.90
41922;DHT22;27609;51.002;5.354;2023-03-01T02:37:01;-0.40;99.90
41922;DHT22;27609;51.002;5.354;2023-03-01T02:39:46;0.00;99.90
41922;DHT22;27609;51.002;5.354;2023-03-01T02:42:17;0.50;99.90
41922;DHT22;27609;51.002;5.354;2023-03-01T02:44:44;0.00;99.90
41922;DHT22;27609;51.002;5.354;2023-03-01T02:47:10;-0.50;99.90
41922;DHT22;27609;51.002;5.354;2023-03-01T02:49:37;-0.30;99.90
41922;DHT22;27609;51.002;5.354;2023-03-01T02:52:44;0.20;99.90
41922;DHT22;27609;51.002;5.354;2023-03-01T02:55:13;-0.70;99.90
41922;DHT22;27609;51.002;5.354;2023-03-01T02:57:41;-0.70;99.90
41922;DHT22;27609;51.002;5.354;2023-03-01T03:00:11;-0.50;99.90
41922;DHT22;27609;51.002;5.354;2023-03-01T03:02:46;-0.80;99.90
41922;DHT22;27609;51.002;5.354;2023-03-01T03:05:15;-0.40;99.90
41922;DHT22;27609;51.002;5.354;2023-03-01T03:07:43;-0.50;99.90
41922;DHT22;27609;51.002;5.354;2023-03-01T03:10:21;0.00;99.90
41922;DHT22;27609;51.002;5.354;2023-03-01T03:12:52;-0.70;99.90
41922;DHT22;27609;51.002;5.354;2023-03-01T03:15:19;-0.10;99.90
41922;DHT22;27609;51.002;5.354;2023-03-01T03:17:46;-0.30;99.90
41922;DHT22;27609;51.002;5.354;2023-03-01T03:20:14;-0.80;99.90
41922;DHT22;27609;51.002;5.354;2023-03-01T03:22:48;-0.80;99.90
41922;DHT22;27609;51.002;5.354;2023-03-01T03:25:15;-0.80;99.90
41922;DHT22;27609;51.002;5.354;2023-03-01T03:27:42;-0.80;99.90
41922;DHT22;27609;51.002;5.354;2023-03-01T03:30:11;-0.80;99.90
41922;DHT22;27609;51.002;5.354;2023-03-01T03:32:44;-0.80;99.90
41922;DHT22;27609;51.002;5.354;2023-03-01T03:35:25;-0.20;99.90
41922;DHT22;27609;51.002;5.354;2023-03-01T03:37:51;-0.80;99.90
41922;DHT22;27609;51.002;5.354;2023-03-01T03:40:30;0.10;99.90
41922;DHT22;27609;51.002;5.354;2023-03-01T03:42:56;0.20;99.90
41922;DHT22;27609;51.002;5.354;2023-03-01T03:45:21;0.00;99.90
41922;DHT22;27609;51.002;5.354;2023-03-01T03:47:47;-0.80;99.90
41922;DHT22;27609;51.002;5.354;2023-03-01T03:50:14;-0.90;99.90
41922;DHT22;27609;51.002;5.354;2023-03-01T03:52:40;-0.40;99.90
41922;DHT22;27609;51.002;5.354;2023-03-01T03:55:08;-0.90;99.90
41922;DHT22;27609;51.002;5.354;2023-03-01T03:57:35;-0.80;99.90
41922;DHT22;27609;51.002;5.354;2023-03-01T04:00:00;-0.90;99.90
41922;DHT22;27609;51.002;5.354;2023-03-01T04:02:29;-0.80;99.90
41922;DHT22;27609;51.002;5.354;2023-03-01T04:04:54;-0.80;99.90
41922;DHT22;27609;51.002;5.354;2023-03-01T04:07:20;-0.80;99.90
41922;DHT22;27609;51.002;5.354;2023-03-01T04:09:46;-0.10;99.90
41922;DHT22;27609;51.002;5.354;2023-03-01T04:12:11;-0.10;99.90
41922;DHT22;27609;51.002;5.354;2023-03-01T04:14:37;-0.50;99.90
41922;DHT22;27609;51.002;5.354;2023-03-01T04:17:03;-0.80;99.90
41922;DHT22;27609;51.002;5.354;2023-03-01T04:19:31;-0.90;99.90
41922;DHT22;27609;51.002;5.354;2023-03-01T04:22:02;-0.90;99.90
41922;DHT22;27609;51.002;5.354;2023-03-01T04:24:33;-0.40;99.90
41922;DHT22;27609;51.002;5.354;2023-03-01T04:26:59;-1.00;99.90
41922;DHT22;27609;51.002;5.354;2023-03-01T04:29:24;-0.90;99.90
41922;DHT22;27609;51.002;5.354;2023-03-01T04:31:50;-0.80;99.90
41922;DHT22;27609;51.002;5.354;2023-03-01T04:34:15;0.00;99.90
41922;DHT22;27609;51.002;5.354;2023-03-01T04:36:41;-0.30;99.90
41922;DHT22;27609;51.002;5.354;2023-03-01T04:39:07;-0.60;99.90
41922;DHT22;27609;51.002;5.354;2023-03-01T04:41:37;-0.70;99.90
41922;DHT22;27609;51.002;5.354;2023-03-01T04:44:05;-0.20;99.90
41922;DHT22;27609;51.002;5.354;2023-03-01T04:46:30;-0.70;99.90
41922;DHT22;27609;51.002;5.354;2023-03-01T04:48:56;-0.40;99.90
41922;DHT22;27609;51.002;5.354;2023-03-01T04:51:22;-1.10;99.90
41922;DHT22;27609;51.002;5.354;2023-03-01T04:53:47;-0.80;99.90
41922;DHT22;27609;51.002;5.354;2023-03-01T04:56:13;-1.20;99.90
41922;DHT22;27609;51.002;5.354;2023-03-01T04:58:39;-0.60;99.90
41922;DHT22;27609;51.002;5.354;2023-03-01T05:01:09;-0.40;99.90
41922;DHT22;27609;51.002;5.354;2023-03-01T05:03:43;-0.60;99.90
41922;DHT22;27609;51.002;5.354;2023-03-01T05:06:09;-1.20;99.90
41922;DHT22;27609;51.002;5.354;2023-03-01T05:08:39;-0.80;99.90
41922;DHT22;27609;51.002;5.354;2023-03-01T05:11:06;-0.50;99.90
41922;DHT22;27609;51.002;5.354;2023-03-01T05:13:35;-0.50;99.90
41922;DHT22;27609;51.002;5.354;2023-03-01T05:16:01;-1.30;99.90
41922;DHT22;27609;51.002;5.354;2023-03-01T05:18:29;-0.70;99.90
41922;DHT22;27609;51.002;5.354;2023-03-01T05:21:01;-0.80;99.90
41922;DHT22;27609;51.002;5.354;2023-03-01T05:23:26;-0.50;99.90
41922;DHT22;27609;51.002;5.354;2023-03-01T05:25:52;-0.50;99.90
41922;DHT22;27609;51.002;5.354;2023-03-01T05:28:19;-0.90;99.90
41922;DHT22;27609;51.002;5.354;2023-03-01T05:30:46;-1.30;99.90
41922;DHT22;27609;51.002;5.354;2023-03-01T05:33:12;-1.10;99.90
41922;DHT22;27609;51.002;5.354;2023-03-01T05:35:44;-0.40;99.90
41922;DHT22;27609;51.002;5.354;2023-03-01T05:38:11;-0.70;99.90
41922;DHT22;27609;51.002;5.354;2023-03-01T05:40:45;-0.80;99.90
41922;DHT22;27609;51.002;5.354;2023-03-01T05:43:12;-0.90;99.90
41922;DHT22;27609;51.002;5.354;2023-03-01T05:45:38;-0.50;99.90
41922;DHT22;27609;51.002;5.354;2023-03-01T05:48:05;-1.20;99.90
41922;DHT22;27609;51.002;5.354;2023-03-01T05:50:42;-1.60;99.90
41922;DHT22;27609;51.002;5.354;2023-03-01T05:53:17;-1.50;99.90
41922;DHT22;27609;51.002;5.354;2023-03-01T05:55:44;-1.50;99.90
41922;DHT22;27609;51.002;5.354;2023-03-01T05:58:15;-0.50;99.90
41922;DHT22;27609;51.002;5.354;2023-03-01T06:00:41;-0.90;99.90
41922;DHT22;27609;51.002;5.354;2023-03-01T06:03:10;-0.80;99.90
41922;DHT22;27609;51.002;5.354;2023-03-01T06:05:36;-0.70;99.90
41922;DHT22;27609;51.002;5.354;2023-03-01T06:08:03;-0.80;99.90
41922;DHT22;27609;51.002;5.354;2023-03-01T06:10:29;-1.30;99.90
41922;DHT22;27609;51.002;5.354;2023-03-01T06:12:55;-0.90;99.90
41922;DHT22;27609;51.002;5.354;2023-03-01T06:15:22;-0.80;99.90
41922;DHT22;27609;51.002;5.354;2023-03-01T06:17:48;-0.80;99.90
41922;DHT22;27609;51.002;5.354;2023-03-01T06:20:19;-1.40;99.90
41922;DHT22;27609;51.002;5.354;2023-03-01T06:22:46;-1.50;99.90
41922;DHT22;27609;51.002;5.354;2023-03-01T06:25:14;-0.90;99.90
41922;DHT22;27609;51.002;5.354;2023-03-01T06:27:40;-1.10;99.90
41922;DHT22;27609;51.002;5.354;2023-03-01T06:30:06;-0.80;99.90
41922;DHT22;27609;51.002;5.354;2023-03-01T06:32:33;-1.50;99.90
41922;DHT22;27609;51.002;5.354;2023-03-01T06:34:59;-1.40;99.90
41922;DHT22;27609;51.002;5.354;2023-03-01T06:37:25;-1.00;99.90
41922;DHT22;27609;51.002;5.354;2023-03-01T06:39:51;-1.50;99.90
41922;DHT22;27609;51.002;5.354;2023-03-01T06:42:16;-1.20;99.90
41922;DHT22;27609;51.002;5.354;2023-03-01T06:44:43;-0.90;99.90
41922;DHT22;27609;51.002;5.354;2023-03-01T06:47:09;-1.30;99.90
41922;DHT22;27609;51.002;5.354;2023-03-01T06:49:34;-0.90;99.90
41922;DHT22;27609;51.002;5.354;2023-03-01T06:52:00;-0.80;99.90
41922;DHT22;27609;51.002;5.354;2023-03-01T06:54:26;-0.80;99.90
41922;DHT22;27609;51.002;5.354;2023-03-01T06:56:51;-0.70;99.90
41922;DHT22;27609;51.002;5.354;2023-03-01T06:59:19;-0.10;99.90
41922;DHT22;27609;51.002;5.354;2023-03-01T07:01:44;0.60;99.90
41922;DHT22;27609;51.002;5.354;2023-03-01T07:04:11;1.80;99.90
41922;DHT22;27609;51.002;5.354;2023-03-01T07:06:37;1.90;99.90
41922;DHT22;27609;51.002;5.354;2023-03-01T07:09:03;2.60;99.90
41922;DHT22;27609;51.002;5.354;2023-03-01T07:11:29;3.40;99.90
41922;DHT22;27609;51.002;5.354;2023-03-01T07:13:54;4.10;99.90
41922;DHT22;27609;51.002;5.354;2023-03-01T07:16:21;4.80;99.90
41922;DHT22;27609;51.002;5.354;2023-03-01T07:18:47;4.90;99.90
41922;DHT22;27609;51.002;5.354;2023-03-01T07:21:14;4.50;99.90
41922;DHT22;27609;51.002;5.354;2023-03-01T07:23:40;5.20;99.90
41922;DHT22;27609;51.002;5.354;2023-03-01T07:26:05;5.60;99.90
41922;DHT22;27609;51.002;5.354;2023-03-01T07:28:31;5.90;99.90
41922;DHT22;27609;51.002;5.354;2023-03-01T07:31:04;6.10;99.90
41922;DHT22;27609;51.002;5.354;2023-03-01T07:33:30;6.10;99.90
41922;DHT22;27609;51.002;5.354;2023-03-01T07:36:01;6.30;99.90
41922;DHT22;27609;51.002;5.354;2023-03-01T07:38:27;6.60;99.90
41922;DHT22;27609;51.002;5.354;2023-03-01T07:40:54;7.00;99.90
41922;DHT22;27609;51.002;5.354;2023-03-01T07:43:22;6.90;99.90
41922;DHT22;27609;51.002;5.354;2023-03-01T07:45:48;7.00;99.90
41922;DHT22;27609;51.002;5.354;2023-03-01T07:48:13;7.20;99.90
41922;DHT22;27609;51.002;5.354;2023-03-01T07:50:39;8.10;99.90
41922;DHT22;27609;51.002;5.354;2023-03-01T07:53:05;8.80;99.90
41922;DHT22;27609;51.002;5.354;2023-03-01T07:55:30;9.10;99.90
41922;DHT22;27609;51.002;5.354;2023-03-01T07:57:56;10.00;99.90
41922;DHT22;27609;51.002;5.354;2023-03-01T08:00:22;10.30;99.90
41922;DHT22;27609;51.002;5.354;2023-03-01T08:02:48;11.20;98.90
41922;DHT22;27609;51.002;5.354;2023-03-01T08:05:13;10.10;99.90
41922;DHT22;27609;51.002;5.354;2023-03-01T08:07:39;10.70;99.20
41922;DHT22;27609;51.002;5.354;2023-03-01T08:10:05;11.60;98.00
41922;DHT22;27609;51.002;5.354;2023-03-01T08:12:31;8.70;99.90
41922;DHT22;27609;51.002;5.354;2023-03-01T08:14:56;8.00;99.90
41922;DHT22;27609;51.002;5.354;2023-03-01T08:17:23;7.90;99.90
41922;DHT22;27609;51.002;5.354;2023-03-01T08:19:48;7.60;99.90
41922;DHT22;27609;51.002;5.354;2023-03-01T08:22:14;8.30;99.90
41922;DHT22;27609;51.002;5.354;2023-03-01T08:24:40;8.70;99.90
41922;DHT22;27609;51.002;5.354;2023-03-01T08:27:05;9.10;99.90
41922;DHT22;27609;51.002;5.354;2023-03-01T08:29:32;9.00;99.90
41922;DHT22;27609;51.002;5.354;2023-03-01T08:31:58;9.90;99.30
41922;DHT22;27609;51.002;5.354;2023-03-01T08:34:23;8.80;99.90
41922;DHT22;27609;51.002;5.354;2023-03-01T08:36:49;9.70;99.90
41922;DHT22;27609;51.002;5.354;2023-03-01T08:39:18;10.70;99.10
41922;DHT22;27609;51.002;5.354;2023-03-01T08:41:45;11.00;98.70
41922;DHT22;27609;51.002;5.354;2023-03-01T08:44:13;11.30;98.10
41922;DHT22;27609;51.002;5.354;2023-03-01T08:46:41;12.80;96.30
41922;DHT22;27609;51.002;5.354;2023-03-01T08:49:17;13.40;95.10
41922;DHT22;27609;51.002;5.354;2023-03-01T08:51:44;14.50;93.00
41922;DHT22;27609;51.002;5.354;2023-03-01T08:54:13;15.50;91.90
41922;DHT22;27609;51.002;5.354;2023-03-01T08:56:40;14.40;92.30
41922;DHT22;27609;51.002;5.354;2023-03-01T08:59:05;15.20;91.00
41922;DHT22;27609;51.002;5.354;2023-03-01T09:01:31;16.30;90.10
41922;DHT22;27609;51.002;5.354;2023-03-01T09:03:57;17.30;87.20
41922;DHT22;27609;51.002;5.354;2023-03-01T09:06:22;18.40;83.70
41922;DHT22;27609;51.002;5.354;2023-03-01T09:08:49;18.40;81.20
41922;DHT22;27609;51.002;5.354;2023-03-01T09:11:17;18.30;79.10
41922;DHT22;27609;51.002;5.354;2023-03-01T09:13:44;19.20;77.60
41922;DHT22;27609;51.002;5.354;2023-03-01T09:16:11;19.50;74.10
41922;DHT22;27609;51.002;5.354;2023-03-01T09:18:37;18.10;75.70
41922;DHT22;27609;51.002;5.354;2023-03-01T09:21:10;17.20;76.80
41922;DHT22;27609;51.002;5.354;2023-03-01T09:23:37;17.70;76.70
41922;DHT22;27609;51.002;5.354;2023-03-01T09:26:05;18.10;74.30
41922;DHT22;27609;51.002;5.354;2023-03-01T09:28:31;18.80;72.90
41922;DHT22;27609;51.002;5.354;2023-03-01T09:31:00;17.50;74.50
41922;DHT22;27609;51.002;5.354;2023-03-01T09:33:27;19.00;71.90
41922;DHT22;27609;51.002;5.354;2023-03-01T09:36:02;17.20;73.40
41922;DHT22;27609;51.002;5.354;2023-03-01T09:38:28;17.60;73.30
41922;DHT22;27609;51.002;5.354;2023-03-01T09:40:55;17.90;72.50
41922;DHT22;27609;51.002;5.354;2023-03-01T09:43:47;17.60;72.80
41922;DHT22;27609;51.002;5.354;2023-03-01T09:46:21;16.50;73.30
41922;DHT22;27609;51.002;5.354;2023-03-01T09:48:57;15.70;75.30
41922;DHT22;27609;51.002;5.354;2023-03-01T09:51:32;14.90;77.60
41922;DHT22;27609;51.002;5.354;2023-03-01T09:53:58;14.50;77.30
41922;DHT22;27609;51.002;5.354;2023-03-01T09:56:37;14.80;77.80
41922;DHT22;27609;51.002;5.354;2023-03-01T10:09:41;17.50;73.30
41922;DHT22;27609;51.002;5.354;2023-03-01T10:12:11;15.30;75.60
41922;DHT22;27609;51.002;5.354;2023-03-01T10:17:32;14.70;77.90
41922;DHT22;27609;51.002;5.354;2023-03-01T10:22:46;16.30;72.00
41922;DHT22;27609;51.002;5.354;2023-03-01T10:26:04;13.40;78.60
41922;DHT22;27609;51.002;5.354;2023-03-01T10:28:16;14.50;78.00
41922;DHT22;27609;51.002;5.354;2023-03-01T10:30:42;18.20;72.00
41922;DHT22;27609;51.002;5.354;2023-03-01T10:35:46;15.60;73.20
41922;DHT22;27609;51.002;5.354;2023-03-01T10:38:15;14.50;73.50
41922;DHT22;27609;51.002;5.354;2023-03-01T10:43:23;14.70;74.80
41922;DHT22;27609;51.002;5.354;2023-03-01T10:45:49;13.50;77.50
41922;DHT22;27609;51.002;5.354;2023-03-01T10:48:20;12.70;79.50
41922;DHT22;27609;51.002;5.354;2023-03-01T10:53:29;18.10;70.30
41922;DHT22;27609;51.002;5.354;2023-03-01T10:56:02;19.70;69.70
41922;DHT22;27609;51.002;5.354;2023-03-01T10:58:29;20.80;65.40
41922;DHT22;27609;51.002;5.354;2023-03-01T11:01:01;18.00;67.20
41922;DHT22;27609;51.002;5.354;2023-03-01T11:03:32;18.20;68.80
41922;DHT22;27609;51.002;5.354;2023-03-01T11:06:12;17.30;68.10
41922;DHT22;27609;51.002;5.354;2023-03-01T11:08:47;14.00;74.40
41922;DHT22;27609;51.002;5.354;2023-03-01T11:11:18;16.40;73.50
41922;DHT22;27609;51.002;5.354;2023-03-01T11:14:07;17.40;69.90
41922;DHT22;27609;51.002;5.354;2023-03-01T11:16:40;18.10;68.80
41922;DHT22;27609;51.002;5.354;2023-03-01T11:29:58;20.60;62.00
41922;DHT22;27609;51.002;5.354;2023-03-01T11:32:27;20.50;62.70
41922;DHT22;27609;51.002;5.354;2023-03-01T11:35:04;22.40;61.00
41922;DHT22;27609;51.002;5.354;2023-03-01T11:37:51;23.50;58.50
41922;DHT22;27609;51.002;5.354;2023-03-01T11:40:33;23.40;59.30
41922;DHT22;27609;51.002;5.354;2023-03-01T12:00:06;20.50;59.20
41922;DHT22;27609;51.002;5.354;2023-03-01T12:03:01;21.30;57.40
41922;DHT22;27609;51.002;5.354;2023-03-01T12:50:52;23.20;53.90
41922;DHT22;27609;51.002;5.354;2023-03-01T12:53:46;23.30;53.90
41922;DHT22;27609;51.002;5.354;2023-03-01T12:56:15;22.90;53.60
41922;DHT22;27609;51.002;5.354;2023-03-01T13:07:13;20.70;56.00
41922;DHT22;27609;51.002;5.354;2023-03-01T13:17:54;21.50;57.00
41922;DHT22;27609;51.002;5.354;2023-03-01T13:20:26;20.40;56.00
41922;DHT22;27609;51.002;5.354;2023-03-01T13:23:03;20.90;57.20
41922;DHT22;27609;51.002;5.354;2023-03-01T13:25:30;18.70;58.00
41922;DHT22;27609;51.002;5.354;2023-03-01T13:31:00;21.50;57.00
41922;DHT22;27609;51.002;5.354;2023-03-01T13:35:53;22.90;54.80
41922;DHT22;27609;51.002;5.354;2023-03-01T13:38:45;22.90;54.00
41922;DHT22;27609;51.002;5.354;2023-03-01T13:41:47;21.70;55.10
41922;DHT22;27609;51.002;5.354;2023-03-01T13:44:24;20.50;56.00
41922;DHT22;27609;51.002;5.354;2023-03-01T13:49:44;20.00;55.60
41922;DHT22;27609;51.002;5.354;2023-03-01T13:55:05;17.20;58.80
41922;DHT22;27609;51.002;5.354;2023-03-01T13:57:37;18.30;59.50
41922;DHT22;27609;51.002;5.354;2023-03-01T14:00:07;19.80;57.40
41922;DHT22;27609;51.002;5.354;2023-03-01T14:02:33;20.20;57.10
41922;DHT22;27609;51.002;5.354;2023-03-01T14:05:01;19.50;57.30
41922;DHT22;27609;51.002;5.354;2023-03-01T14:07:28;18.80;57.40
41922;DHT22;27609;51.002;5.354;2023-03-01T14:10:01;19.30;57.90
41922;DHT22;27609;51.002;5.354;2023-03-01T14:12:51;19.50;55.90
41922;DHT22;27609;51.002;5.354;2023-03-01T14:15:28;18.30;58.00
41922;DHT22;27609;51.002;5.354;2023-03-01T14:20:43;16.80;59.10
41922;DHT22;27609;51.002;5.354;2023-03-01T14:23:19;16.00;62.00
41922;DHT22;27609;51.002;5.354;2023-03-01T14:26:03;16.70;61.00
41922;DHT22;27609;51.002;5.354;2023-03-01T14:28:31;16.30;62.80
41922;DHT22;27609;51.002;5.354;2023-03-01T14:31:01;17.10;61.30
41922;DHT22;27609;51.002;5.354;2023-03-01T14:33:30;17.20;59.70
41922;DHT22;27609;51.002;5.354;2023-03-01T14:36:05;17.00;60.50
41922;DHT22;27609;51.002;5.354;2023-03-01T14:41:14;16.70;61.40
41922;DHT22;27609;51.002;5.354;2023-03-01T14:43:55;17.10;59.80
41922;DHT22;27609;51.002;5.354;2023-03-01T14:46:30;17.10;59.20
41922;DHT22;27609;51.002;5.354;2023-03-01T14:49:03;16.40;60.30
41922;DHT22;27609;51.002;5.354;2023-03-01T14:51:34;16.40;60.20
41922;DHT22;27609;51.002;5.354;2023-03-01T14:54:00;15.60;62.70
41922;DHT22;27609;51.002;5.354;2023-03-01T14:56:26;15.10;62.00
41922;DHT22;27609;51.002;5.354;2023-03-01T14:58:53;14.10;62.80
41922;DHT22;27609;51.002;5.354;2023-03-01T15:01:23;14.10;64.00
41922;DHT22;27609;51.002;5.354;2023-03-01T15:03:49;14.40;62.90
41922;DHT22;27609;51.002;5.354;2023-03-01T15:06:18;13.90;63.30
41922;DHT22;27609;51.002;5.354;2023-03-01T15:08:48;13.90;64.30
41922;DHT22;27609;51.002;5.354;2023-03-01T15:11:32;14.20;63.60
41922;DHT22;27609;51.002;5.354;2023-03-01T15:13:59;14.00;64.30
41922;DHT22;27609;51.002;5.354;2023-03-01T15:16:31;13.80;66.00
41922;DHT22;27609;51.002;5.354;2023-03-01T15:19:03;13.20;66.60
41922;DHT22;27609;51.002;5.354;2023-03-01T15:21:37;12.90;68.00
41922;DHT22;27609;51.002;5.354;2023-03-01T15:26:53;14.10;64.40
41922;DHT22;27609;51.002;5.354;2023-03-01T15:29:25;13.80;65.40
41922;DHT22;27609;51.002;5.354;2023-03-01T15:34:45;12.50;67.70
41922;DHT22;27609;51.002;5.354;2023-03-01T15:40:02;11.20;70.00
41922;DHT22;27609;51.002;5.354;2023-03-01T15:47:41;10.80;72.00
41922;DHT22;27609;51.002;5.354;2023-03-01T15:50:28;10.60;71.30
41922;DHT22;27609;51.002;5.354;2023-03-01T15:52:55;10.50;71.10
41922;DHT22;27609;51.002;5.354;2023-03-01T15:55:26;10.20;72.90
41922;DHT22;27609;51.002;5.354;2023-03-01T15:58:14;10.10;73.20
41922;DHT22;27609;51.002;5.354;2023-03-01T16:00:41;9.90;73.40
41922;DHT22;27609;51.002;5.354;2023-03-01T16:03:08;9.80;73.40
41922;DHT22;27609;51.002;5.354;2023-03-01T16:05:38;9.70;74.60
41922;DHT22;27609;51.002;5.354;2023-03-01T16:08:05;9.50;75.50
41922;DHT22;27609;51.002;5.354;2023-03-01T16:10:34;9.40;75.60
41922;DHT22;27609;51.002;5.354;2023-03-01T16:13:00;9.30;76.60
41922;DHT22;27609;51.002;5.354;2023-03-01T16:15:29;9.20;75.80
41922;DHT22;27609;51.002;5.354;2023-03-01T16:17:55;9.00;77.10
41922;DHT22;27609;51.002;5.354;2023-03-01T16:20:24;9.00;76.70
41922;DHT22;27609;51.002;5.354;2023-03-01T16:22:50;9.10;76.80
41922;DHT22;27609;51.002;5.354;2023-03-01T16:25:18;8.90;77.20
41922;DHT22;27609;51.002;5.354;2023-03-01T16:27:48;8.90;77.70
41922;DHT22;27609;51.002;5.354;2023-03-01T16:30:15;8.90;77.90
41922;DHT22;27609;51.002;5.354;2023-03-01T16:32:44;8.80;78.50
41922;DHT22;27609;51.002;5.354;2023-03-01T16:35:12;8.60;79.70
41922;DHT22;27609;51.002;5.354;2023-03-01T16:37:39;8.60;79.80
41922;DHT22;27609;51.002;5.354;2023-03-01T16:40:07;8.50;79.50
41922;DHT22;27609;51.002;5.354;2023-03-01T16:42:37;8.40;80.80
41922;DHT22;27609;51.002;5.354;2023-03-01T16:45:03;8.40;80.30
41922;DHT22;27609;51.002;5.354;2023-03-01T16:47:29;8.40;81.20
41922;DHT22;27609;51.002;5.354;2023-03-01T16:49:55;8.40;81.50
41922;DHT22;27609;51.002;5.354;2023-03-01T16:52:22;8.30;81.60
41922;DHT22;27609;51.002;5.354;2023-03-01T16:54:48;8.20;82.00
41922;DHT22;27609;51.002;5.354;2023-03-01T16:57:14;8.10;82.10
41922;DHT22;27609;51.002;5.354;2023-03-01T16:59:39;7.70;83.20
41922;DHT22;27609;51.002;5.354;2023-03-01T17:02:08;7.90;84.30
41922;DHT22;27609;51.002;5.354;2023-03-01T17:04:36;7.70;84.90
41922;DHT22;27609;51.002;5.354;2023-03-01T17:07:02;7.60;86.20
41922;DHT22;27609;51.002;5.354;2023-03-01T17:09:28;7.50;86.40
41922;DHT22;27609;51.002;5.354;2023-03-01T17:11:53;7.30;87.30
41922;DHT22;27609;51.002;5.354;2023-03-01T17:14:21;7.30;87.80
41922;DHT22;27609;51.002;5.354;2023-03-01T17:16:46;7.30;89.00
41922;DHT22;27609;51.002;5.354;2023-03-01T17:19:12;7.30;89.00
41922;DHT22;27609;51.002;5.354;2023-03-01T17:21:43;7.20;89.30
41922;DHT22;27609;51.002;5.354;2023-03-01T17:24:10;7.10;89.90
41922;DHT22;27609;51.002;5.354;2023-03-01T17:26:35;7.10;90.50
41922;DHT22;27609;51.002;5.354;2023-03-01T17:29:01;7.00;90.60
41922;DHT22;27609;51.002;5.354;2023-03-01T17:31:29;7.00;90.60
41922;DHT22;27609;51.002;5.354;2023-03-01T17:33:55;6.90;90.90
41922;DHT22;27609;51.002;5.354;2023-03-01T17:36:21;6.80;91.60
41922;DHT22;27609;51.002;5.354;2023-03-01T17:38:47;6.70;91.70
41922;DHT22;27609;51.002;5.354;2023-03-01T17:41:14;6.60;92.10
41922;DHT22;27609;51.002;5.354;2023-03-01T17:43:46;6.50;92.60
41922;DHT22;27609;51.002;5.354;2023-03-01T17:46:12;6.40;92.90
41922;DHT22;27609;51.002;5.354;2023-03-01T17:48:38;6.40;92.70
41922;DHT22;27609;51.002;5.354;2023-03-01T17:51:09;6.30;93.10
41922;DHT22;27609;51.002;5.354;2023-03-01T17:53:36;6.20;93.60
41922;DHT22;27609;51.002;5.354;2023-03-01T17:56:04;6.00;94.20
41922;DHT22;27609;51.002;5.354;2023-03-01T17:58:31;6.10;94.50
41922;DHT22;27609;51.002;5.354;2023-03-01T18:01:10;6.00;94.50
41922;DHT22;27609;51.002;5.354;2023-03-01T18:03:37;6.00;94.60
41922;DHT22;27609;51.002;5.354;2023-03-01T18:06:13;5.90;94.90
41922;DHT22;27609;51.002;5.354;2023-03-01T18:08:38;5.80;95.50
41922;DHT22;27609;51.002;5.354;2023-03-01T18:11:04;5.80;95.80
41922;DHT22;27609;51.002;5.354;2023-03-01T18:13:30;5.70;95.90
41922;DHT22;27609;51.002;5.354;2023-03-01T18:15:56;5.60;96.10
41922;DHT22;27609;51.002;5.354;2023-03-01T18:18:29;5.60;96.30